Orchard Beach, Maryland
Current Conditions -  °F | °C
As of 2:54 AM on Sunday 26 Oct 2014 (Local Time) from KBWI Reporting Station
Few Clouds Few Clouds  
Wind Chill: 53°   Ceiling: Unl
Heat Index: 53°   Visibility: 10mi
Dew Point: 45°   Wind: 6mph
Humidity: 74%   Direction: 260°W
Pressure: 29.66"   Gusts: NA
Location:  39.1918°N, 76.5466°W
Report Text: KBWI 260654Z 26005KT 10SM FEW060 12/07 A2966 RMK AO2 SLP044 T01170072
Loading
Personal Weather Stations






























Interactive Weather Map
Tropical Storm Tracking
New forecast layout! Learn more

10-Day Weather Forecast

Advertisements
Track Severe Weather on mobile